Pagrindinis puslapis
METAR-TAF:

METAR-TAF

Oro uostai :

Aganija, Guamas, Jungtinės Amerikos Valstijos

platuma: 13-29N, ilguma: 144-48E, Aukštis: 91 m

Dabartinis oras

Ataskaita buvo paskelbta 57 minutes, ne 07:54 UTC
Vėjas 9 kt iš Rytų
Temperatūra 30°C
Drėgmė 75%
Slėgis 1011 hPa
Matomumas: 16.1 km
Giedras dangus

METAR: PGUM 220754Z 08009KT 10SM CLR 30/25 A2986 RMK AO2 SLP102 T03000250

Laikas: 18:51 (08:51 UTC)

Prognozė

Ataskaita buvo paskelbta 3 valandos ir 31 minutes, ne 05:20 UTC
Prognozė galioja nuo 22 metu 06 UTC su 23 metu 12 UTC
Vėjas 14 kt iš Rytų su gūsio iki 23 kt
Matomumas: 10 km
Išsisklaidę debesys ne aukštis 2200 ft
Išsisklaidę debesys ne aukštis 12000 ft
Liūtis kaimynystėje
Nuo 22 metu 0900 UTC
Vėjas 8 kt iš Rytų
Matomumas: 10 km
Mažai debesys ne aukštis 2000 ft
Liūtis kaimynystėje,

TAF: PGUM 220520Z 2206/2312 08014G23KT P6SM VCSH SCT022 SCT120 FM220900 10008KT P6SM VCSH FEW020

Orai ataskaitas ir orų prognozės (METAR, TAF).

turimą stotys yra geltonos ir raudonos taškus žemėlapyje.

Perkelti pele per norėdami pamatyti stoties vardą.

Tada spustelėkite, norėdami matyti oro stebėjimo ir prognozės.

Norėdami pakeisti žemėlapį: spustelėkite ant žalios mygtukų su juodo kryžiaus žemyn,; žalią mygtuką su brūkšneliu, jei norite nutolinti; arba žalių rodyklių gretimoms žemėlapius.


METAR-TAF: